createdAt,value
2022-10-18T00:02:15.779Z,90.60
2022-10-18T00:04:42.486Z,90.60
2022-10-18T00:07:09.141Z,91.80
2022-10-18T00:09:35.855Z,90.70
2022-10-18T00:12:02.697Z,92.20
2022-10-18T00:14:29.325Z,90.40
2022-10-18T00:16:55.962Z,91.70
2022-10-18T00:19:25.924Z,91.80
2022-10-18T00:21:55.271Z,90.60
2022-10-18T00:24:21.913Z,91.60
2022-10-18T00:26:48.533Z,90.60
2022-10-18T00:29:16.457Z,91.70
2022-10-18T00:31:44.282Z,91.60
2022-10-18T00:34:15.816Z,91.90
2022-10-18T00:36:43.784Z,91.50
2022-10-18T00:39:17.734Z,91.60
2022-10-18T00:41:45.147Z,91.90
2022-10-18T00:44:11.723Z,91.80
2022-10-18T00:46:40.947Z,90.60
2022-10-18T00:49:13.303Z,91.70
2022-10-18T00:52:05.428Z,90.30
2022-10-18T00:54:35.583Z,91.90
2022-10-18T00:57:03.111Z,90.60
2022-10-18T00:59:30.353Z,90.40
2022-10-18T01:01:57.121Z,92.10
2022-10-18T01:04:24.129Z,92.10
2022-10-18T01:07:09.574Z,92.30
2022-10-18T01:09:39.048Z,90.50
2022-10-18T01:12:29.293Z,91.70
2022-10-18T01:15:17.814Z,90.00
2022-10-18T01:18:22.227Z,91.70
2022-10-18T01:21:15.208Z,90.50
2022-10-18T01:24:16.194Z,91.70
2022-10-18T01:27:09.185Z,90.30
2022-10-18T01:29:53.289Z,92.00
2022-10-18T01:32:24.080Z,91.90
2022-10-18T01:34:57.339Z,92.00
2022-10-18T01:37:24.939Z,90.70
2022-10-18T01:39:55.851Z,92.20
2022-10-18T01:42:22.696Z,91.00
2022-10-18T01:44:52.106Z,92.40
2022-10-18T01:47:19.527Z,92.40
2022-10-18T01:49:46.328Z,92.20
2022-10-18T01:52:14.684Z,90.70
2022-10-18T01:54:46.106Z,92.00
2022-10-18T01:57:27.700Z,92.00
2022-10-18T02:00:16.517Z,90.80
2022-10-18T02:02:56.587Z,92.10
2022-10-18T02:05:33.196Z,90.80
2022-10-18T02:08:23.379Z,92.10
2022-10-18T02:11:03.681Z,92.10
2022-10-18T02:13:58.496Z,92.10
2022-10-18T02:16:45.615Z,92.10
2022-10-18T02:19:32.982Z,92.00
2022-10-18T02:22:00.495Z,90.70
2022-10-18T02:24:49.576Z,90.70
2022-10-18T02:27:16.678Z,92.40
2022-10-18T02:29:44.399Z,92.40
2022-10-18T02:32:11.032Z,90.80
2022-10-18T02:34:49.285Z,92.30
2022-10-18T02:37:17.317Z,92.00
2022-10-18T02:39:48.262Z,90.60
2022-10-18T02:42:15.928Z,92.20
2022-10-18T02:44:42.949Z,92.30
2022-10-18T02:47:11.444Z,91.70
2022-10-18T02:49:38.333Z,92.80
2022-10-18T02:52:04.999Z,90.70
2022-10-18T02:59:25.894Z,92.20
2022-10-18T03:01:52.708Z,92.10
2022-10-18T03:04:19.542Z,92.70
2022-10-18T03:06:46.207Z,92.20
2022-10-18T03:11:39.914Z,92.60
2022-10-18T03:14:06.561Z,92.60
2022-10-18T03:19:00.823Z,92.20
2022-10-18T03:21:27.676Z,92.50
2022-10-18T03:28:48.449Z,92.20
2022-10-18T03:31:15.167Z,91.00
2022-10-18T03:38:36.139Z,92.20
2022-10-18T03:43:30.042Z,92.10
2022-10-18T03:45:56.768Z,92.30
2022-10-18T03:48:23.511Z,92.10
2022-10-18T03:50:50.216Z,92.00
2022-10-18T03:55:43.973Z,92.10
2022-10-18T03:58:11.539Z,92.30
2022-10-18T04:00:38.219Z,92.20
2022-10-18T04:03:04.974Z,92.20
2022-10-18T04:05:31.621Z,92.20
2022-10-18T04:07:58.571Z,92.00
2022-10-18T04:10:25.445Z,91.30
2022-10-18T04:12:52.142Z,92.00
2022-10-18T04:15:18.892Z,92.20
2022-10-18T04:17:45.642Z,92.10
2022-10-18T04:20:12.551Z,92.30
2022-10-18T04:22:39.137Z,90.70
2022-10-18T04:25:06.134Z,92.40
2022-10-18T04:27:33.102Z,92.10
2022-10-18T04:29:59.908Z,92.70
2022-10-18T04:32:28.635Z,92.10
2022-10-18T04:39:53.436Z,92.80
2022-10-18T04:42:21.157Z,92.50
2022-10-18T04:47:15.224Z,93.00
2022-10-18T04:49:42.562Z,92.50
2022-10-18T04:52:09.842Z,93.00
2022-10-18T04:54:36.705Z,93.00
2022-10-18T04:57:03.727Z,92.00
2022-10-18T05:01:57.694Z,92.80
2022-10-18T05:04:24.367Z,91.10
2022-10-18T05:06:51.006Z,92.30
2022-10-18T05:09:17.837Z,93.00
2022-10-18T05:14:11.626Z,92.60
2022-10-18T05:16:38.305Z,93.10
2022-10-18T05:19:05.679Z,92.50
2022-10-18T05:21:32.771Z,92.40
2022-10-18T05:23:59.518Z,92.60
2022-10-18T05:26:26.404Z,92.50
2022-10-18T05:28:53.117Z,91.40
2022-10-18T05:36:15.312Z,92.80
2022-10-18T05:38:43.122Z,92.50
2022-10-18T05:41:10.171Z,91.10
2022-10-18T05:43:36.963Z,92.40
2022-10-18T05:46:04.786Z,92.30
2022-10-18T05:48:31.558Z,92.30
2022-10-18T05:50:59.484Z,92.40
2022-10-18T05:53:42.175Z,92.30
2022-10-18T05:58:38.719Z,92.30
2022-10-18T06:01:06.328Z,92.10
2022-10-18T06:03:33.573Z,92.20
2022-10-18T06:06:06.103Z,90.60
2022-10-18T06:08:33.476Z,91.40
2022-10-18T06:11:00.670Z,92.40
2022-10-18T06:13:29.084Z,92.80
2022-10-18T06:20:59.445Z,90.40
2022-10-18T06:23:29.208Z,90.40
2022-10-18T06:26:04.620Z,92.70
2022-10-18T06:28:31.472Z,92.20
2022-10-18T06:30:58.315Z,91.40
2022-10-18T06:33:25.388Z,92.60
2022-10-18T06:36:03.464Z,90.80
2022-10-18T06:38:30.717Z,90.50
2022-10-18T06:40:58.203Z,92.20
2022-10-18T06:43:25.033Z,92.10
2022-10-18T06:51:00.250Z,90.70
2022-10-18T06:53:29.274Z,92.10
2022-10-18T06:56:07.317Z,92.60
2022-10-18T06:58:35.271Z,92.20
2022-10-18T07:01:11.167Z,90.40
2022-10-18T07:03:38.072Z,92.80
2022-10-18T07:06:07.181Z,92.60
2022-10-18T07:08:34.472Z,92.10
2022-10-18T07:13:33.061Z,92.60
2022-10-18T07:16:20.454Z,91.90
2022-10-18T07:18:49.600Z,90.20
2022-10-18T07:21:18.640Z,92.00
2022-10-18T07:23:46.317Z,92.10
2022-10-18T07:26:16.713Z,91.70
2022-10-18T07:28:45.179Z,90.10
2022-10-18T07:31:12.784Z,91.90
2022-10-18T07:33:39.700Z,91.80
2022-10-18T07:36:08.690Z,92.20
2022-10-18T07:38:35.829Z,91.90
2022-10-18T07:41:06.158Z,90.10
2022-10-18T07:43:33.607Z,90.50
2022-10-18T07:46:02.311Z,91.10
2022-10-18T07:48:29.650Z,91.90
2022-10-18T07:50:59.662Z,92.00
2022-10-18T07:53:26.652Z,92.00
2022-10-18T07:55:56.483Z,90.30
2022-10-18T08:00:50.206Z,92.60
2022-10-18T08:03:16.889Z,92.10
2022-10-18T08:05:43.552Z,92.10
2022-10-18T08:08:10.323Z,92.10
2022-10-18T08:10:37.051Z,92.10
2022-10-18T08:13:03.704Z,92.80
2022-10-18T08:15:30.325Z,91.70
2022-10-18T08:20:30.785Z,92.30
2022-10-18T08:23:00.485Z,92.80
2022-10-18T08:27:55.163Z,90.50
2022-10-18T08:30:23.299Z,92.70
2022-10-18T08:32:49.932Z,92.20
2022-10-18T08:35:16.631Z,92.80
2022-10-18T08:37:45.181Z,92.40
2022-10-18T08:40:15.245Z,90.50
2022-10-18T08:42:57.983Z,92.10
2022-10-18T08:45:40.945Z,92.30
2022-10-18T08:48:11.994Z,92.10
2022-10-18T08:50:39.568Z,92.20
2022-10-18T08:53:36.187Z,92.60
2022-10-18T08:56:16.000Z,90.50
2022-10-18T08:58:46.481Z,92.30
2022-10-18T09:01:19.141Z,91.90
2022-10-18T09:04:03.405Z,92.40
2022-10-18T09:06:38.509Z,92.20
2022-10-18T09:11:46.822Z,90.20
2022-10-18T09:14:56.008Z,92.30
2022-10-18T09:17:50.109Z,92.00
2022-10-18T09:20:22.105Z,92.00
2022-10-18T09:22:52.525Z,91.50
2022-10-18T09:25:21.109Z,91.10
2022-10-18T09:28:21.738Z,90.50
2022-10-18T09:31:05.697Z,91.40
2022-10-18T09:33:53.627Z,91.30
2022-10-18T09:36:26.735Z,91.10
2022-10-18T09:38:59.914Z,89.00
2022-10-18T09:41:53.988Z,90.60
2022-10-18T09:44:35.379Z,91.00
2022-10-18T09:47:22.739Z,87.70
2022-10-18T09:49:51.662Z,91.00
2022-10-18T09:52:27.237Z,90.20
2022-10-18T09:55:01.115Z,89.80
2022-10-18T09:57:42.681Z,89.50
2022-10-18T10:00:18.503Z,86.30
2022-10-18T10:02:45.171Z,89.90
2022-10-18T10:05:15.357Z,89.60
2022-10-18T10:07:44.943Z,87.50
2022-10-18T10:10:21.707Z,86.80
2022-10-18T10:12:49.140Z,87.00
2022-10-18T10:15:31.204Z,83.50
2022-10-18T10:18:03.466Z,87.30
2022-10-18T10:20:36.999Z,83.30
2022-10-18T10:23:13.797Z,85.90
2022-10-18T10:25:42.138Z,80.80
2022-10-18T10:28:22.534Z,84.00
2022-10-18T10:30:49.939Z,80.90
2022-10-18T10:33:38.063Z,83.50
2022-10-18T10:36:16.027Z,81.70
2022-10-18T10:41:21.580Z,81.10
2022-10-18T10:43:49.787Z,78.20
2022-10-18T10:46:20.824Z,77.60
2022-10-18T10:49:04.455Z,81.20
2022-10-18T10:51:41.101Z,77.10
2022-10-18T10:54:24.361Z,78.70
2022-10-18T10:57:12.629Z,80.10
2022-10-18T10:59:44.765Z,78.10
2022-10-18T11:02:15.189Z,78.50
2022-10-18T11:04:42.416Z,78.70
2022-10-18T11:07:08.986Z,78.70
2022-10-18T11:09:41.431Z,76.50
2022-10-18T11:12:22.972Z,74.00
2022-10-18T11:15:12.745Z,73.80
2022-10-18T11:17:39.332Z,77.50
2022-10-18T11:20:22.975Z,73.70
2022-10-18T11:23:11.812Z,73.60
2022-10-18T11:25:49.027Z,77.30
2022-10-18T11:28:45.998Z,76.40
2022-10-18T11:31:23.851Z,73.80
2022-10-18T11:34:09.930Z,73.80
2022-10-18T11:37:36.019Z,75.70
2022-10-18T11:40:23.509Z,75.90
2022-10-18T11:43:17.484Z,76.20
2022-10-18T11:46:21.075Z,75.70
2022-10-18T11:49:02.369Z,75.70
2022-10-18T11:52:07.692Z,75.00
2022-10-18T11:55:04.085Z,74.70
2022-10-18T11:57:43.739Z,75.10
2022-10-18T12:03:27.592Z,74.30
2022-10-18T12:05:57.066Z,73.80
2022-10-18T12:08:27.087Z,74.10
2022-10-18T12:11:05.058Z,73.80
2022-10-18T12:13:57.597Z,70.20
2022-10-18T12:16:49.259Z,72.60
2022-10-18T12:19:29.048Z,73.60
2022-10-18T12:22:02.441Z,71.90
2022-10-18T12:24:31.625Z,72.20
2022-10-18T12:27:01.237Z,73.40
2022-10-18T12:32:01.693Z,68.90
2022-10-18T12:34:54.191Z,68.70
2022-10-18T12:37:45.859Z,67.50
2022-10-18T12:40:23.211Z,70.20
2022-10-18T12:42:52.175Z,67.40
2022-10-18T12:45:26.101Z,67.30
2022-10-18T12:47:53.924Z,67.20
2022-10-18T12:50:35.083Z,69.10
2022-10-18T12:53:12.309Z,69.90
2022-10-18T12:55:47.634Z,70.10
2022-10-18T12:58:14.219Z,67.50
2022-10-18T13:00:43.952Z,64.80
2022-10-18T13:03:13.275Z,62.80
2022-10-18T13:05:54.553Z,60.50
2022-10-18T13:08:28.171Z,59.60
2022-10-18T13:11:27.348Z,57.50
2022-10-18T13:14:15.881Z,56.30
2022-10-18T13:17:06.104Z,54.00
2022-10-18T13:20:25.125Z,52.00
2022-10-18T13:23:03.840Z,51.10
2022-10-18T13:25:51.260Z,49.40
2022-10-18T13:28:44.845Z,47.90
2022-10-18T13:31:52.863Z,46.10
2022-10-18T13:34:24.977Z,45.90
2022-10-18T13:37:00.804Z,45.00
2022-10-18T13:39:28.477Z,46.20
2022-10-18T13:41:58.139Z,43.40
2022-10-18T13:44:28.436Z,43.00
2022-10-18T13:46:55.103Z,44.60
2022-10-18T13:49:36.437Z,45.60
2022-10-18T13:52:09.054Z,49.70
2022-10-18T13:55:04.284Z,47.70
2022-10-18T13:58:03.578Z,48.60
2022-10-18T14:00:49.209Z,49.10
2022-10-18T14:06:40.735Z,53.30
2022-10-18T14:09:43.793Z,51.20
2022-10-18T14:12:33.744Z,51.40
2022-10-18T14:15:07.805Z,57.50
2022-10-18T14:17:42.872Z,56.00
2022-10-18T14:20:49.339Z,54.10
2022-10-18T14:23:33.743Z,54.60
2022-10-18T14:26:22.764Z,56.60
2022-10-18T14:29:19.044Z,56.70
2022-10-18T14:31:54.274Z,56.70
2022-10-18T14:34:21.686Z,56.40
2022-10-18T14:36:50.165Z,58.50
2022-10-18T14:39:21.918Z,59.80
2022-10-18T14:41:56.394Z,56.90
2022-10-18T14:44:28.864Z,56.70
2022-10-18T14:46:55.478Z,56.30
2022-10-18T14:49:22.191Z,56.70
2022-10-18T14:51:54.678Z,56.70
2022-10-18T14:54:35.999Z,57.50
2022-10-18T14:57:04.660Z,57.60
2022-10-18T14:59:44.806Z,53.50
2022-10-18T15:02:23.585Z,51.10
2022-10-18T15:05:08.652Z,51.10
2022-10-18T15:07:36.280Z,51.40
2022-10-18T15:10:04.836Z,50.00
2022-10-18T15:12:36.835Z,47.50
2022-10-18T15:15:17.939Z,47.40
2022-10-18T15:17:45.862Z,47.50
2022-10-18T15:20:25.991Z,48.70
2022-10-18T15:22:53.152Z,47.40
2022-10-18T15:25:31.592Z,47.30
2022-10-18T15:27:59.359Z,45.40
2022-10-18T15:30:37.166Z,45.40
2022-10-18T15:33:09.592Z,43.70
2022-10-18T15:35:38.442Z,44.90
2022-10-18T15:38:17.076Z,46.60
2022-10-18T15:40:44.162Z,48.70
2022-10-18T15:43:23.017Z,51.00
2022-10-18T15:46:00.062Z,52.90
2022-10-18T15:48:40.784Z,54.50
2022-10-18T15:51:12.459Z,56.10
2022-10-18T15:53:44.980Z,57.10
2022-10-18T15:56:34.286Z,58.50
2022-10-18T15:59:15.710Z,59.10
2022-10-18T16:01:44.251Z,60.10
2022-10-18T16:04:25.016Z,60.50
2022-10-18T16:06:52.554Z,62.40
2022-10-18T16:09:21.009Z,61.20
2022-10-18T16:11:54.284Z,61.60
2022-10-18T16:14:24.396Z,64.20
2022-10-18T16:16:55.207Z,62.50
2022-10-18T16:19:25.210Z,65.10
2022-10-18T16:21:53.567Z,64.60
2022-10-18T16:24:21.371Z,65.50
2022-10-18T16:26:48.524Z,63.80
2022-10-18T16:29:25.804Z,66.20
2022-10-18T16:31:55.182Z,66.70
2022-10-18T16:34:22.730Z,66.30
2022-10-18T16:36:49.465Z,64.90
2022-10-18T16:39:18.110Z,67.60
2022-10-18T16:41:45.431Z,65.20
2022-10-18T16:44:12.888Z,65.60
2022-10-18T16:46:40.967Z,68.20
2022-10-18T16:49:16.997Z,68.20
2022-10-18T16:51:43.700Z,68.50
2022-10-18T16:54:10.287Z,66.80
2022-10-18T16:56:37.167Z,66.40
2022-10-18T16:59:04.014Z,69.30
2022-10-18T17:01:30.671Z,67.40
2022-10-18T17:03:57.396Z,70.10
2022-10-18T17:06:32.378Z,70.00
2022-10-18T17:08:59.673Z,70.50
2022-10-18T17:11:29.839Z,68.30
2022-10-18T17:13:56.935Z,71.90
2022-10-18T17:18:57.965Z,71.50
2022-10-18T17:21:26.364Z,71.70
2022-10-18T17:26:30.449Z,71.70
2022-10-18T17:29:06.533Z,69.10
2022-10-18T17:31:33.593Z,72.60
2022-10-18T17:34:01.773Z,72.20
2022-10-18T17:36:30.512Z,69.60
2022-10-18T17:38:57.869Z,70.80
2022-10-18T17:41:24.640Z,73.20
2022-10-18T17:43:51.249Z,70.50
2022-10-18T17:51:16.537Z,70.50
2022-10-18T17:53:44.067Z,70.80
2022-10-18T17:56:11.147Z,73.90
2022-10-18T17:58:37.894Z,71.20
2022-10-18T18:01:24.849Z,74.10
2022-10-18T18:03:57.154Z,75.20
2022-10-18T18:06:31.214Z,74.30
2022-10-18T18:08:59.393Z,71.20
2022-10-18T18:11:26.340Z,74.70
2022-10-18T18:13:55.558Z,74.90
2022-10-18T18:16:25.431Z,75.10
2022-10-18T18:18:55.541Z,75.30
2022-10-18T18:21:22.971Z,75.40
2022-10-18T18:23:50.152Z,75.30
2022-10-18T18:26:18.480Z,71.80
2022-10-18T18:28:45.363Z,75.40
2022-10-18T18:31:15.491Z,76.10
2022-10-18T18:33:42.903Z,72.50
2022-10-18T18:36:10.214Z,76.30
2022-10-18T18:38:38.732Z,76.40
2022-10-18T18:41:07.575Z,76.80
2022-10-18T18:43:35.107Z,76.90
2022-10-18T18:46:02.200Z,77.10
2022-10-18T18:48:29.048Z,77.30
2022-10-18T18:50:55.614Z,73.70
2022-10-18T18:53:24.893Z,76.80
2022-10-18T18:55:53.802Z,73.70
2022-10-18T19:00:47.648Z,77.10
2022-10-18T19:03:14.334Z,79.10
2022-10-18T19:05:41.014Z,77.50
2022-10-18T19:08:07.750Z,77.60
2022-10-18T19:13:01.948Z,77.40
2022-10-18T19:15:28.665Z,77.50
2022-10-18T19:17:56.296Z,78.30
2022-10-18T19:20:23.032Z,77.70
2022-10-18T19:22:49.713Z,77.80
2022-10-18T19:25:16.455Z,78.10
2022-10-18T19:30:11.517Z,78.50
2022-10-18T19:32:38.424Z,78.60
2022-10-18T19:35:05.111Z,75.20
2022-10-18T19:39:59.699Z,79.10
2022-10-18T19:49:53.670Z,78.90
2022-10-18T19:54:48.921Z,75.00
2022-10-18T19:57:15.894Z,76.90
2022-10-18T19:59:42.566Z,75.60
2022-10-18T20:02:14.636Z,79.60
2022-10-18T20:07:09.009Z,80.10
2022-10-18T20:09:36.337Z,80.70
2022-10-18T20:12:03.096Z,79.40
2022-10-18T20:24:18.271Z,79.80
2022-10-18T20:26:45.104Z,79.90
2022-10-18T20:29:12.845Z,80.00
2022-10-18T20:31:39.646Z,79.70
2022-10-18T20:34:10.384Z,79.10
2022-10-18T20:36:37.627Z,77.50
2022-10-18T20:41:37.931Z,77.30
2022-10-18T20:44:07.108Z,80.80
2022-10-18T20:46:35.765Z,80.30
2022-10-18T20:49:03.047Z,77.90
2022-10-18T20:53:57.143Z,81.90
2022-10-18T20:56:26.558Z,81.30
2022-10-18T20:58:56.842Z,80.90
2022-10-18T21:01:32.224Z,81.40
2022-10-18T21:04:03.126Z,76.10
2022-10-18T21:06:41.595Z,80.10
2022-10-18T21:09:16.689Z,81.20
2022-10-18T21:11:45.911Z,81.30
2022-10-18T21:14:20.427Z,80.40
2022-10-18T21:16:47.989Z,82.60
2022-10-18T21:21:44.341Z,80.00
2022-10-18T21:24:12.101Z,81.60
2022-10-18T21:26:39.154Z,81.70
2022-10-18T21:29:06.709Z,81.50
2022-10-18T21:31:39.148Z,79.30
2022-10-18T21:34:15.707Z,81.30
2022-10-18T21:36:43.925Z,79.90
2022-10-18T21:39:13.563Z,76.60
2022-10-18T21:41:40.445Z,82.90
2022-10-18T21:44:10.690Z,82.70
2022-10-18T21:46:39.271Z,82.50
2022-10-18T21:49:06.976Z,78.30
2022-10-18T21:51:33.784Z,81.60
2022-10-18T21:54:00.572Z,81.60
2022-10-18T21:56:30.046Z,82.10
2022-10-18T21:58:57.475Z,81.60
2022-10-18T22:01:38.122Z,81.50
2022-10-18T22:04:16.159Z,82.90
2022-10-18T22:06:42.788Z,82.10
2022-10-18T22:09:09.506Z,82.30
2022-10-18T22:11:42.854Z,76.90
2022-10-18T22:14:09.560Z,81.60
2022-10-18T22:19:04.239Z,76.60
2022-10-18T22:21:31.285Z,81.70
2022-10-18T22:23:58.758Z,77.20
2022-10-18T22:26:34.070Z,76.80
2022-10-18T22:29:06.935Z,82.30
2022-10-18T22:31:36.752Z,82.30
2022-10-18T22:34:06.710Z,82.10
2022-10-18T22:36:34.816Z,81.90
2022-10-18T22:39:01.927Z,83.60
2022-10-18T22:41:28.720Z,82.20
2022-10-18T22:43:58.392Z,82.20
2022-10-18T22:48:55.091Z,82.80
2022-10-18T22:56:17.713Z,77.30
2022-10-18T22:58:44.826Z,84.10
2022-10-18T23:01:15.781Z,77.80
2022-10-18T23:03:42.596Z,82.70
2022-10-18T23:06:24.736Z,77.30
2022-10-18T23:13:46.393Z,83.00
2022-10-18T23:16:13.142Z,77.90
2022-10-18T23:21:09.453Z,77.60
2022-10-18T23:23:38.529Z,77.50
2022-10-18T23:26:07.583Z,82.90
2022-10-18T23:28:36.881Z,77.20
2022-10-18T23:31:10.342Z,82.40
2022-10-18T23:33:37.287Z,77.90
2022-10-18T23:36:05.247Z,81.20
2022-10-18T23:43:26.193Z,77.30
2022-10-18T23:48:20.183Z,80.60
2022-10-18T23:50:47.204Z,84.40
2022-10-18T23:53:13.873Z,83.00
2022-10-18T23:55:48.469Z,84.30
